sensor_id;sensor_type;location;lat;lon;timestamp;temperature;humidity
14101;DHT22;7127;49.372;8.166;2024-01-06T00:00:42;9.30;56.50
14101;DHT22;7127;49.372;8.166;2024-01-06T00:03:09;9.30;56.60
14101;DHT22;7127;49.372;8.166;2024-01-06T00:05:35;9.20;56.60
14101;DHT22;7127;49.372;8.166;2024-01-06T00:08:03;9.20;56.50
14101;DHT22;7127;49.372;8.166;2024-01-06T00:10:30;9.20;56.60
14101;DHT22;7127;49.372;8.166;2024-01-06T00:12:56;9.20;56.60
14101;DHT22;7127;49.372;8.166;2024-01-06T00:15:24;9.20;56.70
14101;DHT22;7127;49.372;8.166;2024-01-06T00:17:52;9.20;56.60
14101;DHT22;7127;49.372;8.166;2024-01-06T00:20:19;9.20;56.60
14101;DHT22;7127;49.372;8.166;2024-01-06T00:22:45;9.20;56.60
14101;DHT22;7127;49.372;8.166;2024-01-06T00:25:12;9.20;56.50
14101;DHT22;7127;49.372;8.166;2024-01-06T00:27:39;9.10;56.30
14101;DHT22;7127;49.372;8.166;2024-01-06T00:30:06;9.10;56.30
14101;DHT22;7127;49.372;8.166;2024-01-06T00:32:33;9.10;56.40
14101;DHT22;7127;49.372;8.166;2024-01-06T00:35:02;9.00;56.40
14101;DHT22;7127;49.372;8.166;2024-01-06T00:37:29;9.00;56.50
14101;DHT22;7127;49.372;8.166;2024-01-06T00:39:55;9.00;56.60
14101;DHT22;7127;49.372;8.166;2024-01-06T00:42:22;9.00;56.40
14101;DHT22;7127;49.372;8.166;2024-01-06T00:44:49;8.90;56.30
14101;DHT22;7127;49.372;8.166;2024-01-06T00:47:16;9.00;56.50
14101;DHT22;7127;49.372;8.166;2024-01-06T00:49:42;8.90;56.50
14101;DHT22;7127;49.372;8.166;2024-01-06T00:52:12;8.90;56.50
14101;DHT22;7127;49.372;8.166;2024-01-06T00:54:38;8.90;56.60
14101;DHT22;7127;49.372;8.166;2024-01-06T00:57:05;8.90;56.60
14101;DHT22;7127;49.372;8.166;2024-01-06T00:59:32;8.80;56.70
14101;DHT22;7127;49.372;8.166;2024-01-06T01:01:59;8.90;56.80
14101;DHT22;7127;49.372;8.166;2024-01-06T01:04:26;8.80;56.70
14101;DHT22;7127;49.372;8.166;2024-01-06T01:06:52;8.80;56.80
14101;DHT22;7127;49.372;8.166;2024-01-06T01:09:21;8.80;56.90
14101;DHT22;7127;49.372;8.166;2024-01-06T01:11:47;8.80;57.00
14101;DHT22;7127;49.372;8.166;2024-01-06T01:14:14;8.90;57.10
14101;DHT22;7127;49.372;8.166;2024-01-06T01:16:43;8.90;57.10
14101;DHT22;7127;49.372;8.166;2024-01-06T01:19:10;8.90;57.20
14101;DHT22;7127;49.372;8.166;2024-01-06T01:21:37;8.90;57.20
14101;DHT22;7127;49.372;8.166;2024-01-06T01:24:04;9.00;57.30
14101;DHT22;7127;49.372;8.166;2024-01-06T01:26:33;9.10;57.30
14101;DHT22;7127;49.372;8.166;2024-01-06T01:28:59;9.10;57.30
14101;DHT22;7127;49.372;8.166;2024-01-06T01:31:26;9.10;57.40
14101;DHT22;7127;49.372;8.166;2024-01-06T01:33:53;9.20;57.40
14101;DHT22;7127;49.372;8.166;2024-01-06T01:36:20;9.30;57.40
14101;DHT22;7127;49.372;8.166;2024-01-06T01:38:47;9.20;57.30
14101;DHT22;7127;49.372;8.166;2024-01-06T01:41:14;9.30;57.40
14101;DHT22;7127;49.372;8.166;2024-01-06T01:43:42;9.40;57.40
14101;DHT22;7127;49.372;8.166;2024-01-06T01:46:09;9.40;57.20
14101;DHT22;7127;49.372;8.166;2024-01-06T01:48:35;9.50;57.20
14101;DHT22;7127;49.372;8.166;2024-01-06T01:51:03;9.50;57.20
14101;DHT22;7127;49.372;8.166;2024-01-06T01:53:30;9.50;57.80
14101;DHT22;7127;49.372;8.166;2024-01-06T01:55:57;9.60;57.30
14101;DHT22;7127;49.372;8.166;2024-01-06T01:58:25;9.60;57.20
14101;DHT22;7127;49.372;8.166;2024-01-06T02:00:53;9.70;57.30
14101;DHT22;7127;49.372;8.166;2024-01-06T02:03:20;9.70;57.10
14101;DHT22;7127;49.372;8.166;2024-01-06T02:05:49;9.80;57.10
14101;DHT22;7127;49.372;8.166;2024-01-06T02:08:15;9.80;57.00
14101;DHT22;7127;49.372;8.166;2024-01-06T02:10:42;9.80;56.90
14101;DHT22;7127;49.372;8.166;2024-01-06T02:13:10;9.90;57.00
14101;DHT22;7127;49.372;8.166;2024-01-06T02:15:37;9.90;57.00
14101;DHT22;7127;49.372;8.166;2024-01-06T02:18:05;9.80;56.90
14101;DHT22;7127;49.372;8.166;2024-01-06T02:20:33;9.90;56.80
14101;DHT22;7127;49.372;8.166;2024-01-06T02:23:01;9.90;56.80
14101;DHT22;7127;49.372;8.166;2024-01-06T02:25:28;10.00;55.80
14101;DHT22;7127;49.372;8.166;2024-01-06T02:27:55;9.90;56.50
14101;DHT22;7127;49.372;8.166;2024-01-06T02:30:22;10.00;55.70
14101;DHT22;7127;49.372;8.166;2024-01-06T02:32:49;10.00;55.70
14101;DHT22;7127;49.372;8.166;2024-01-06T02:35:16;10.00;56.30
14101;DHT22;7127;49.372;8.166;2024-01-06T02:37:42;10.00;55.60
14101;DHT22;7127;49.372;8.166;2024-01-06T02:40:12;10.10;55.70
14101;DHT22;7127;49.372;8.166;2024-01-06T02:42:39;10.10;55.80
14101;DHT22;7127;49.372;8.166;2024-01-06T02:45:07;10.00;55.70
14101;DHT22;7127;49.372;8.166;2024-01-06T02:47:34;10.10;55.80
14101;DHT22;7127;49.372;8.166;2024-01-06T02:50:01;10.10;55.80
14101;DHT22;7127;49.372;8.166;2024-01-06T02:52:27;10.10;55.70
14101;DHT22;7127;49.372;8.166;2024-01-06T02:54:54;10.10;55.80
14101;DHT22;7127;49.372;8.166;2024-01-06T02:57:22;10.10;55.60
14101;DHT22;7127;49.372;8.166;2024-01-06T02:59:49;10.20;55.70
14101;DHT22;7127;49.372;8.166;2024-01-06T03:02:17;10.20;55.60
14101;DHT22;7127;49.372;8.166;2024-01-06T03:04:43;10.20;55.60
14101;DHT22;7127;49.372;8.166;2024-01-06T03:07:10;10.20;55.60
14101;DHT22;7127;49.372;8.166;2024-01-06T03:09:37;10.20;55.60
14101;DHT22;7127;49.372;8.166;2024-01-06T03:12:05;10.20;55.50
14101;DHT22;7127;49.372;8.166;2024-01-06T03:14:34;10.30;55.60
14101;DHT22;7127;49.372;8.166;2024-01-06T03:17:01;10.30;55.60
14101;DHT22;7127;49.372;8.166;2024-01-06T03:19:28;10.30;55.60
14101;DHT22;7127;49.372;8.166;2024-01-06T03:21:55;10.30;55.50
14101;DHT22;7127;49.372;8.166;2024-01-06T03:24:22;10.30;55.60
14101;DHT22;7127;49.372;8.166;2024-01-06T03:26:49;10.30;55.50
14101;DHT22;7127;49.372;8.166;2024-01-06T03:29:16;10.30;55.50
14101;DHT22;7127;49.372;8.166;2024-01-06T03:31:45;10.30;55.50
14101;DHT22;7127;49.372;8.166;2024-01-06T03:34:12;10.40;55.50
14101;DHT22;7127;49.372;8.166;2024-01-06T03:36:40;10.40;55.50
14101;DHT22;7127;49.372;8.166;2024-01-06T03:39:07;10.40;55.50
14101;DHT22;7127;49.372;8.166;2024-01-06T03:41:35;10.40;55.50
14101;DHT22;7127;49.372;8.166;2024-01-06T03:44:02;10.40;55.50
14101;DHT22;7127;49.372;8.166;2024-01-06T03:46:29;10.40;55.40
14101;DHT22;7127;49.372;8.166;2024-01-06T03:48:57;10.40;55.40
14101;DHT22;7127;49.372;8.166;2024-01-06T03:51:24;10.40;55.30
14101;DHT22;7127;49.372;8.166;2024-01-06T03:53:51;10.50;55.30
14101;DHT22;7127;49.372;8.166;2024-01-06T03:56:18;10.40;55.20
14101;DHT22;7127;49.372;8.166;2024-01-06T03:58:44;10.50;55.30
14101;DHT22;7127;49.372;8.166;2024-01-06T04:01:11;10.40;55.30
14101;DHT22;7127;49.372;8.166;2024-01-06T04:03:38;10.50;55.30
14101;DHT22;7127;49.372;8.166;2024-01-06T04:06:07;10.40;55.20
14101;DHT22;7127;49.372;8.166;2024-01-06T04:08:35;10.50;55.20
14101;DHT22;7127;49.372;8.166;2024-01-06T04:11:01;10.40;55.00
14101;DHT22;7127;49.372;8.166;2024-01-06T04:13:28;10.40;55.00
14101;DHT22;7127;49.372;8.166;2024-01-06T04:15:55;10.40;55.10
14101;DHT22;7127;49.372;8.166;2024-01-06T04:18:22;10.40;55.00
14101;DHT22;7127;49.372;8.166;2024-01-06T04:20:48;10.40;55.10
14101;DHT22;7127;49.372;8.166;2024-01-06T04:23:16;10.40;55.10
14101;DHT22;7127;49.372;8.166;2024-01-06T04:25:43;10.40;55.10
14101;DHT22;7127;49.372;8.166;2024-01-06T04:28:10;10.30;55.10
14101;DHT22;7127;49.372;8.166;2024-01-06T04:30:37;10.30;55.30
14101;DHT22;7127;49.372;8.166;2024-01-06T04:33:04;10.30;55.30
14101;DHT22;7127;49.372;8.166;2024-01-06T04:35:31;10.30;55.90
14101;DHT22;7127;49.372;8.166;2024-01-06T04:37:58;10.30;55.40
14101;DHT22;7127;49.372;8.166;2024-01-06T04:40:26;10.30;56.10
14101;DHT22;7127;49.372;8.166;2024-01-06T04:42:53;10.30;55.50
14101;DHT22;7127;49.372;8.166;2024-01-06T04:45:20;10.30;55.50
14101;DHT22;7127;49.372;8.166;2024-01-06T04:47:49;10.40;55.50
14101;DHT22;7127;49.372;8.166;2024-01-06T04:50:16;10.40;55.50
14101;DHT22;7127;49.372;8.166;2024-01-06T04:52:43;10.40;55.50
14101;DHT22;7127;49.372;8.166;2024-01-06T04:55:10;10.40;55.60
14101;DHT22;7127;49.372;8.166;2024-01-06T04:57:39;10.40;55.40
14101;DHT22;7127;49.372;8.166;2024-01-06T05:00:06;10.40;55.40
14101;DHT22;7127;49.372;8.166;2024-01-06T05:02:33;10.40;55.40
14101;DHT22;7127;49.372;8.166;2024-01-06T05:05:00;10.50;55.50
14101;DHT22;7127;49.372;8.166;2024-01-06T05:07:27;10.40;55.30
14101;DHT22;7127;49.372;8.166;2024-01-06T05:09:54;10.40;55.30
14101;DHT22;7127;49.372;8.166;2024-01-06T05:12:21;10.40;55.40
14101;DHT22;7127;49.372;8.166;2024-01-06T05:14:49;10.50;55.50
14101;DHT22;7127;49.372;8.166;2024-01-06T05:17:16;10.50;55.50
14101;DHT22;7127;49.372;8.166;2024-01-06T05:19:43;10.50;55.40
14101;DHT22;7127;49.372;8.166;2024-01-06T05:22:09;10.50;55.30
14101;DHT22;7127;49.372;8.166;2024-01-06T05:24:36;10.40;55.10
14101;DHT22;7127;49.372;8.166;2024-01-06T05:27:03;10.50;55.20
14101;DHT22;7127;49.372;8.166;2024-01-06T05:29:30;10.50;55.30
14101;DHT22;7127;49.372;8.166;2024-01-06T05:31:58;10.40;55.20
14101;DHT22;7127;49.372;8.166;2024-01-06T05:34:25;10.40;55.30
14101;DHT22;7127;49.372;8.166;2024-01-06T05:36:52;10.40;55.30
14101;DHT22;7127;49.372;8.166;2024-01-06T05:39:19;10.40;55.40
14101;DHT22;7127;49.372;8.166;2024-01-06T05:41:46;10.40;55.50
14101;DHT22;7127;49.372;8.166;2024-01-06T05:44:13;10.40;55.60
14101;DHT22;7127;49.372;8.166;2024-01-06T05:46:40;10.40;55.80
14101;DHT22;7127;49.372;8.166;2024-01-06T05:49:08;10.40;55.80
14101;DHT22;7127;49.372;8.166;2024-01-06T05:51:35;10.40;55.80
14101;DHT22;7127;49.372;8.166;2024-01-06T05:54:02;10.50;55.80
14101;DHT22;7127;49.372;8.166;2024-01-06T05:56:29;10.50;55.90
14101;DHT22;7127;49.372;8.166;2024-01-06T05:58:56;10.40;55.80
14101;DHT22;7127;49.372;8.166;2024-01-06T06:01:23;10.40;55.70
14101;DHT22;7127;49.372;8.166;2024-01-06T06:03:50;10.40;55.80
14101;DHT22;7127;49.372;8.166;2024-01-06T06:06:18;10.50;55.90
14101;DHT22;7127;49.372;8.166;2024-01-06T06:08:46;10.50;55.90
14101;DHT22;7127;49.372;8.166;2024-01-06T06:11:14;10.40;55.90
14101;DHT22;7127;49.372;8.166;2024-01-06T06:13:41;10.50;55.90
14101;DHT22;7127;49.372;8.166;2024-01-06T06:16:09;10.50;55.90
14101;DHT22;7127;49.372;8.166;2024-01-06T06:18:37;10.50;55.90
14101;DHT22;7127;49.372;8.166;2024-01-06T06:21:06;10.40;55.80
14101;DHT22;7127;49.372;8.166;2024-01-06T06:23:35;10.50;55.80
14101;DHT22;7127;49.372;8.166;2024-01-06T06:26:05;10.40;55.90
14101;DHT22;7127;49.372;8.166;2024-01-06T06:28:32;10.40;55.90
14101;DHT22;7127;49.372;8.166;2024-01-06T06:30:59;10.40;55.90
14101;DHT22;7127;49.372;8.166;2024-01-06T06:33:26;10.40;56.00
14101;DHT22;7127;49.372;8.166;2024-01-06T06:35:53;10.40;56.00
14101;DHT22;7127;49.372;8.166;2024-01-06T06:38:20;10.40;56.00
14101;DHT22;7127;49.372;8.166;2024-01-06T06:40:48;10.50;56.10
14101;DHT22;7127;49.372;8.166;2024-01-06T06:43:14;10.40;56.00
14101;DHT22;7127;49.372;8.166;2024-01-06T06:45:41;10.40;56.60
14101;DHT22;7127;49.372;8.166;2024-01-06T06:48:08;10.40;56.00
14101;DHT22;7127;49.372;8.166;2024-01-06T06:50:35;10.40;56.00
14101;DHT22;7127;49.372;8.166;2024-01-06T06:53:02;10.40;56.00
14101;DHT22;7127;49.372;8.166;2024-01-06T06:55:29;10.40;56.10
14101;DHT22;7127;49.372;8.166;2024-01-06T06:57:57;10.40;56.10
14101;DHT22;7127;49.372;8.166;2024-01-06T07:00:24;10.40;56.10
14101;DHT22;7127;49.372;8.166;2024-01-06T07:02:51;10.40;56.10
14101;DHT22;7127;49.372;8.166;2024-01-06T07:05:17;10.40;56.10
14101;DHT22;7127;49.372;8.166;2024-01-06T07:07:44;10.30;56.10
14101;DHT22;7127;49.372;8.166;2024-01-06T07:10:12;10.40;56.10
14101;DHT22;7127;49.372;8.166;2024-01-06T07:12:39;10.40;56.10
14101;DHT22;7127;49.372;8.166;2024-01-06T07:15:07;10.40;56.30
14101;DHT22;7127;49.372;8.166;2024-01-06T07:17:34;10.40;56.20
14101;DHT22;7127;49.372;8.166;2024-01-06T07:20:02;10.40;56.20
14101;DHT22;7127;49.372;8.166;2024-01-06T07:22:29;10.40;56.30
14101;DHT22;7127;49.372;8.166;2024-01-06T07:24:56;10.40;56.40
14101;DHT22;7127;49.372;8.166;2024-01-06T07:27:23;10.40;56.20
14101;DHT22;7127;49.372;8.166;2024-01-06T07:29:50;10.40;56.30
14101;DHT22;7127;49.372;8.166;2024-01-06T07:32:18;10.40;56.40
14101;DHT22;7127;49.372;8.166;2024-01-06T07:34:44;10.50;56.40
14101;DHT22;7127;49.372;8.166;2024-01-06T07:37:11;10.50;56.40
14101;DHT22;7127;49.372;8.166;2024-01-06T07:39:38;10.50;56.40
14101;DHT22;7127;49.372;8.166;2024-01-06T07:42:05;10.50;56.40
14101;DHT22;7127;49.372;8.166;2024-01-06T07:44:33;10.50;56.40
14101;DHT22;7127;49.372;8.166;2024-01-06T07:46:59;10.50;56.50
14101;DHT22;7127;49.372;8.166;2024-01-06T07:49:28;10.50;56.50
14101;DHT22;7127;49.372;8.166;2024-01-06T07:51:55;10.60;56.60
14101;DHT22;7127;49.372;8.166;2024-01-06T07:54:22;10.50;56.50
14101;DHT22;7127;49.372;8.166;2024-01-06T07:56:49;10.50;56.50
14101;DHT22;7127;49.372;8.166;2024-01-06T07:59:15;10.60;56.60
14101;DHT22;7127;49.372;8.166;2024-01-06T08:01:42;10.60;56.70
14101;DHT22;7127;49.372;8.166;2024-01-06T08:04:09;10.60;56.70
14101;DHT22;7127;49.372;8.166;2024-01-06T08:06:37;10.60;56.80
14101;DHT22;7127;49.372;8.166;2024-01-06T08:09:04;10.60;56.80
14101;DHT22;7127;49.372;8.166;2024-01-06T08:11:31;10.60;56.90
14101;DHT22;7127;49.372;8.166;2024-01-06T08:13:58;10.60;56.90
14101;DHT22;7127;49.372;8.166;2024-01-06T08:16:25;10.70;56.90
14101;DHT22;7127;49.372;8.166;2024-01-06T08:18:52;10.70;56.90
14101;DHT22;7127;49.372;8.166;2024-01-06T08:21:19;10.70;56.90
14101;DHT22;7127;49.372;8.166;2024-01-06T08:23:47;10.70;57.00
14101;DHT22;7127;49.372;8.166;2024-01-06T08:26:14;10.80;57.00
14101;DHT22;7127;49.372;8.166;2024-01-06T08:28:40;10.80;56.90
14101;DHT22;7127;49.372;8.166;2024-01-06T08:31:07;10.80;56.90
14101;DHT22;7127;49.372;8.166;2024-01-06T08:33:34;10.80;56.80
14101;DHT22;7127;49.372;8.166;2024-01-06T08:36:01;10.80;56.80
14101;DHT22;7127;49.372;8.166;2024-01-06T08:38:28;10.80;56.80
14101;DHT22;7127;49.372;8.166;2024-01-06T08:40:56;10.80;56.80
14101;DHT22;7127;49.372;8.166;2024-01-06T08:43:22;10.90;56.80
14101;DHT22;7127;49.372;8.166;2024-01-06T08:45:49;10.90;56.80
14101;DHT22;7127;49.372;8.166;2024-01-06T08:48:16;10.90;56.80
14101;DHT22;7127;49.372;8.166;2024-01-06T08:50:43;10.90;56.80
14101;DHT22;7127;49.372;8.166;2024-01-06T08:53:12;10.90;56.70
14101;DHT22;7127;49.372;8.166;2024-01-06T08:55:38;10.90;56.70
14101;DHT22;7127;49.372;8.166;2024-01-06T08:58:06;10.90;56.70
14101;DHT22;7127;49.372;8.166;2024-01-06T09:00:33;10.90;56.80
14101;DHT22;7127;49.372;8.166;2024-01-06T09:03:00;10.90;56.80
14101;DHT22;7127;49.372;8.166;2024-01-06T09:05:27;10.90;56.90
14101;DHT22;7127;49.372;8.166;2024-01-06T09:07:53;10.90;56.90
14101;DHT22;7127;49.372;8.166;2024-01-06T09:10:20;10.90;57.00
14101;DHT22;7127;49.372;8.166;2024-01-06T09:12:47;11.00;57.10
14101;DHT22;7127;49.372;8.166;2024-01-06T09:15:15;11.00;57.10
14101;DHT22;7127;49.372;8.166;2024-01-06T09:17:42;11.00;57.00
14101;DHT22;7127;49.372;8.166;2024-01-06T09:20:09;11.00;57.00
14101;DHT22;7127;49.372;8.166;2024-01-06T09:22:36;11.10;57.00
14101;DHT22;7127;49.372;8.166;2024-01-06T09:25:04;11.10;57.00
14101;DHT22;7127;49.372;8.166;2024-01-06T09:27:31;11.10;57.00
14101;DHT22;7127;49.372;8.166;2024-01-06T09:29:58;11.10;57.00
14101;DHT22;7127;49.372;8.166;2024-01-06T09:32:26;11.10;57.00
14101;DHT22;7127;49.372;8.166;2024-01-06T09:34:53;11.10;57.00
14101;DHT22;7127;49.372;8.166;2024-01-06T09:37:20;11.10;57.00
14101;DHT22;7127;49.372;8.166;2024-01-06T09:39:47;11.20;57.20
14101;DHT22;7127;49.372;8.166;2024-01-06T09:42:14;11.20;57.20
14101;DHT22;7127;49.372;8.166;2024-01-06T09:44:41;11.30;57.30
14101;DHT22;7127;49.372;8.166;2024-01-06T09:47:12;11.30;57.30
14101;DHT22;7127;49.372;8.166;2024-01-06T09:49:42;11.30;57.20
14101;DHT22;7127;49.372;8.166;2024-01-06T09:52:15;11.30;57.00
14101;DHT22;7127;49.372;8.166;2024-01-06T09:54:49;11.30;56.80
14101;DHT22;7127;49.372;8.166;2024-01-06T09:57:17;11.30;57.00
14101;DHT22;7127;49.372;8.166;2024-01-06T09:59:44;11.40;57.10
14101;DHT22;7127;49.372;8.166;2024-01-06T10:02:14;11.30;56.90
14101;DHT22;7127;49.372;8.166;2024-01-06T10:04:42;11.40;56.90
14101;DHT22;7127;49.372;8.166;2024-01-06T10:07:09;11.30;56.70
14101;DHT22;7127;49.372;8.166;2024-01-06T10:09:38;11.40;56.80
14101;DHT22;7127;49.372;8.166;2024-01-06T10:12:05;11.30;56.70
14101;DHT22;7127;49.372;8.166;2024-01-06T10:14:32;11.30;56.70
14101;DHT22;7127;49.372;8.166;2024-01-06T10:16:59;11.30;56.80
14101;DHT22;7127;49.372;8.166;2024-01-06T10:19:26;11.30;56.80
14101;DHT22;7127;49.372;8.166;2024-01-06T10:21:54;11.20;56.80
14101;DHT22;7127;49.372;8.166;2024-01-06T10:24:21;11.20;56.90
14101;DHT22;7127;49.372;8.166;2024-01-06T10:26:48;11.20;56.80
14101;DHT22;7127;49.372;8.166;2024-01-06T10:29:15;11.20;57.00
14101;DHT22;7127;49.372;8.166;2024-01-06T10:31:42;11.20;57.00
14101;DHT22;7127;49.372;8.166;2024-01-06T10:34:09;11.20;57.10
14101;DHT22;7127;49.372;8.166;2024-01-06T10:36:35;11.20;57.60
14101;DHT22;7127;49.372;8.166;2024-01-06T10:39:04;11.20;57.20
14101;DHT22;7127;49.372;8.166;2024-01-06T10:41:33;11.20;57.20
14101;DHT22;7127;49.372;8.166;2024-01-06T10:44:03;11.30;57.20
14101;DHT22;7127;49.372;8.166;2024-01-06T10:46:31;11.30;57.20
14101;DHT22;7127;49.372;8.166;2024-01-06T10:48:59;11.30;57.10
14101;DHT22;7127;49.372;8.166;2024-01-06T10:51:27;11.30;57.00
14101;DHT22;7127;49.372;8.166;2024-01-06T10:53:57;11.30;56.80
14101;DHT22;7127;49.372;8.166;2024-01-06T10:56:25;11.30;56.90
14101;DHT22;7127;49.372;8.166;2024-01-06T10:58:53;11.30;57.00
14101;DHT22;7127;49.372;8.166;2024-01-06T11:01:22;11.30;57.00
14101;DHT22;7127;49.372;8.166;2024-01-06T11:03:50;11.30;56.90
14101;DHT22;7127;49.372;8.166;2024-01-06T11:06:17;11.30;56.90
14101;DHT22;7127;49.372;8.166;2024-01-06T11:08:49;11.40;56.90
14101;DHT22;7127;49.372;8.166;2024-01-06T11:11:18;11.30;56.80
14101;DHT22;7127;49.372;8.166;2024-01-06T11:13:46;11.30;56.80
14101;DHT22;7127;49.372;8.166;2024-01-06T11:16:33;11.30;56.80
14101;DHT22;7127;49.372;8.166;2024-01-06T11:19:00;11.30;56.70
14101;DHT22;7127;49.372;8.166;2024-01-06T11:21:27;11.30;56.70
14101;DHT22;7127;49.372;8.166;2024-01-06T11:24:15;11.30;56.70
14101;DHT22;7127;49.372;8.166;2024-01-06T11:26:43;11.30;56.70
14101;DHT22;7127;49.372;8.166;2024-01-06T11:29:12;11.30;56.70
14101;DHT22;7127;49.372;8.166;2024-01-06T11:31:39;11.30;56.70
14101;DHT22;7127;49.372;8.166;2024-01-06T11:34:14;11.30;57.30
14101;DHT22;7127;49.372;8.166;2024-01-06T11:36:42;11.30;56.70
14101;DHT22;7127;49.372;8.166;2024-01-06T11:39:36;11.30;56.70
14101;DHT22;7127;49.372;8.166;2024-01-06T11:42:04;11.20;56.50
14101;DHT22;7127;49.372;8.166;2024-01-06T11:44:36;11.20;56.60
14101;DHT22;7127;49.372;8.166;2024-01-06T11:47:04;11.20;56.60
14101;DHT22;7127;49.372;8.166;2024-01-06T11:49:32;11.20;56.80
14101;DHT22;7127;49.372;8.166;2024-01-06T11:51:59;11.20;57.00
14101;DHT22;7127;49.372;8.166;2024-01-06T11:54:26;11.30;57.00
14101;DHT22;7127;49.372;8.166;2024-01-06T11:56:53;11.30;57.00
14101;DHT22;7127;49.372;8.166;2024-01-06T11:59:21;11.40;57.10
14101;DHT22;7127;49.372;8.166;2024-01-06T12:01:49;11.40;57.10
14101;DHT22;7127;49.372;8.166;2024-01-06T12:04:17;11.50;57.70
14101;DHT22;7127;49.372;8.166;2024-01-06T12:06:44;11.50;57.20
14101;DHT22;7127;49.372;8.166;2024-01-06T12:09:12;11.60;57.30
14101;DHT22;7127;49.372;8.166;2024-01-06T12:11:40;11.70;57.10
14101;DHT22;7127;49.372;8.166;2024-01-06T12:14:10;11.80;57.10
14101;DHT22;7127;49.372;8.166;2024-01-06T12:16:37;11.70;56.50
14101;DHT22;7127;49.372;8.166;2024-01-06T12:19:05;11.80;56.90
14101;DHT22;7127;49.372;8.166;2024-01-06T12:21:33;11.90;56.70
14101;DHT22;7127;49.372;8.166;2024-01-06T12:24:19;11.90;56.80
14101;DHT22;7127;49.372;8.166;2024-01-06T12:26:47;12.00;56.40
14101;DHT22;7127;49.372;8.166;2024-01-06T12:29:14;12.10;56.50
14101;DHT22;7127;49.372;8.166;2024-01-06T12:31:41;12.10;56.20
14101;DHT22;7127;49.372;8.166;2024-01-06T12:34:10;12.10;56.20
14101;DHT22;7127;49.372;8.166;2024-01-06T12:36:37;12.30;56.30
14101;DHT22;7127;49.372;8.166;2024-01-06T12:39:05;12.20;56.20
14101;DHT22;7127;49.372;8.166;2024-01-06T12:41:31;12.20;56.00
14101;DHT22;7127;49.372;8.166;2024-01-06T12:43:59;12.20;55.90
14101;DHT22;7127;49.372;8.166;2024-01-06T12:46:27;12.20;55.90
14101;DHT22;7127;49.372;8.166;2024-01-06T12:48:54;12.20;55.50
14101;DHT22;7127;49.372;8.166;2024-01-06T12:51:22;12.20;55.50
14101;DHT22;7127;49.372;8.166;2024-01-06T12:53:49;12.20;55.60
14101;DHT22;7127;49.372;8.166;2024-01-06T12:56:15;12.20;55.60
14101;DHT22;7127;49.372;8.166;2024-01-06T12:58:42;12.20;55.70
14101;DHT22;7127;49.372;8.166;2024-01-06T13:01:10;12.20;55.80
14101;DHT22;7127;49.372;8.166;2024-01-06T13:03:37;12.20;55.80
14101;DHT22;7127;49.372;8.166;2024-01-06T13:06:04;12.20;55.90
14101;DHT22;7127;49.372;8.166;2024-01-06T13:08:32;12.20;55.90
14101;DHT22;7127;49.372;8.166;2024-01-06T13:10:59;12.30;56.10
14101;DHT22;7127;49.372;8.166;2024-01-06T13:13:26;12.30;56.10
14101;DHT22;7127;49.372;8.166;2024-01-06T13:15:53;12.40;56.20
14101;DHT22;7127;49.372;8.166;2024-01-06T13:18:19;12.30;56.00
14101;DHT22;7127;49.372;8.166;2024-01-06T13:20:46;12.30;56.10
14101;DHT22;7127;49.372;8.166;2024-01-06T13:23:13;12.40;56.20
14101;DHT22;7127;49.372;8.166;2024-01-06T13:25:42;12.30;55.80
14101;DHT22;7127;49.372;8.166;2024-01-06T13:28:09;12.30;55.70
14101;DHT22;7127;49.372;8.166;2024-01-06T13:30:35;12.40;55.80
14101;DHT22;7127;49.372;8.166;2024-01-06T13:33:04;12.40;55.50
14101;DHT22;7127;49.372;8.166;2024-01-06T13:35:31;12.50;55.20
14101;DHT22;7127;49.372;8.166;2024-01-06T13:37:59;12.40;55.30
14101;DHT22;7127;49.372;8.166;2024-01-06T13:40:27;12.40;55.50
14101;DHT22;7127;49.372;8.166;2024-01-06T13:42:55;12.30;55.40
14101;DHT22;7127;49.372;8.166;2024-01-06T13:45:23;12.40;55.50
14101;DHT22;7127;49.372;8.166;2024-01-06T13:47:50;12.40;55.50
14101;DHT22;7127;49.372;8.166;2024-01-06T13:50:19;12.60;55.60
14101;DHT22;7127;49.372;8.166;2024-01-06T13:52:46;12.40;55.40
14101;DHT22;7127;49.372;8.166;2024-01-06T13:55:13;12.50;55.50
14101;DHT22;7127;49.372;8.166;2024-01-06T13:57:40;12.60;55.60
14101;DHT22;7127;49.372;8.166;2024-01-06T14:00:10;12.50;55.50
14101;DHT22;7127;49.372;8.166;2024-01-06T14:02:40;12.50;55.50
14101;DHT22;7127;49.372;8.166;2024-01-06T14:05:07;12.50;55.50
14101;DHT22;7127;49.372;8.166;2024-01-06T14:07:35;12.50;55.50
14101;DHT22;7127;49.372;8.166;2024-01-06T14:10:04;12.60;55.40
14101;DHT22;7127;49.372;8.166;2024-01-06T14:12:31;12.60;55.50
14101;DHT22;7127;49.372;8.166;2024-01-06T14:14:58;12.60;55.30
14101;DHT22;7127;49.372;8.166;2024-01-06T14:17:28;12.60;55.40
14101;DHT22;7127;49.372;8.166;2024-01-06T14:19:55;12.60;55.50
14101;DHT22;7127;49.372;8.166;2024-01-06T14:22:22;12.60;55.50
14101;DHT22;7127;49.372;8.166;2024-01-06T14:24:48;12.60;55.50
14101;DHT22;7127;49.372;8.166;2024-01-06T14:27:15;12.60;55.30
14101;DHT22;7127;49.372;8.166;2024-01-06T14:29:42;12.60;55.30
14101;DHT22;7127;49.372;8.166;2024-01-06T14:32:09;12.60;55.30
14101;DHT22;7127;49.372;8.166;2024-01-06T14:34:37;12.70;55.00
14101;DHT22;7127;49.372;8.166;2024-01-06T14:37:04;12.70;55.00
14101;DHT22;7127;49.372;8.166;2024-01-06T14:39:31;12.60;54.90
14101;DHT22;7127;49.372;8.166;2024-01-06T14:41:58;12.60;55.00
14101;DHT22;7127;49.372;8.166;2024-01-06T14:44:25;12.60;55.00
14101;DHT22;7127;49.372;8.166;2024-01-06T14:46:54;12.60;54.90
14101;DHT22;7127;49.372;8.166;2024-01-06T14:49:21;12.60;55.10
14101;DHT22;7127;49.372;8.166;2024-01-06T14:51:49;12.50;55.10
14101;DHT22;7127;49.372;8.166;2024-01-06T14:54:16;12.60;55.10
14101;DHT22;7127;49.372;8.166;2024-01-06T14:56:43;12.50;55.00
14101;DHT22;7127;49.372;8.166;2024-01-06T14:59:09;12.60;55.10
14101;DHT22;7127;49.372;8.166;2024-01-06T15:01:36;12.70;55.10
14101;DHT22;7127;49.372;8.166;2024-01-06T15:04:03;12.60;54.80
14101;DHT22;7127;49.372;8.166;2024-01-06T15:06:30;12.50;54.90
14101;DHT22;7127;49.372;8.166;2024-01-06T15:08:58;12.50;54.90
14101;DHT22;7127;49.372;8.166;2024-01-06T15:11:25;12.60;55.10
14101;DHT22;7127;49.372;8.166;2024-01-06T15:13:52;12.60;55.00
14101;DHT22;7127;49.372;8.166;2024-01-06T15:16:19;12.50;54.80
14101;DHT22;7127;49.372;8.166;2024-01-06T15:18:46;12.50;54.70
14101;DHT22;7127;49.372;8.166;2024-01-06T15:21:13;12.40;54.50
14101;DHT22;7127;49.372;8.166;2024-01-06T15:23:40;12.50;54.40
14101;DHT22;7127;49.372;8.166;2024-01-06T15:26:08;12.40;54.50
14101;DHT22;7127;49.372;8.166;2024-01-06T15:28:35;12.40;54.40
14101;DHT22;7127;49.372;8.166;2024-01-06T15:31:02;12.40;54.40
14101;DHT22;7127;49.372;8.166;2024-01-06T15:33:29;12.40;54.60
14101;DHT22;7127;49.372;8.166;2024-01-06T15:35:56;12.40;54.70
14101;DHT22;7127;49.372;8.166;2024-01-06T15:38:22;12.40;54.80
14101;DHT22;7127;49.372;8.166;2024-01-06T15:40:49;12.40;54.80
14101;DHT22;7127;49.372;8.166;2024-01-06T15:43:17;12.40;54.80
14101;DHT22;7127;49.372;8.166;2024-01-06T15:45:44;12.30;54.80
14101;DHT22;7127;49.372;8.166;2024-01-06T15:48:11;12.40;54.80